Data for 01/03/2007

Time Sea-Level Adjusted Pressure Absolute Pressure Temperature Relative Humidity Dew Point   
(mb) (inHg) (mb) (inHg) (C) (F) (%) (C) (F)
00:05 1010 29.83 839 24.78 8.3 46.9 35 -6.1 21
00:10 1009 29.8 839 24.78 8.3 46.9 35 -6.4 20.5
00:15 1009 29.8 839 24.78 8.4 47.1 35 -6.1 21.1
00:20 1009 29.8 838 24.75 8.4 47.1 35 -6.2 20.8
00:25 1009 29.8 838 24.75 8.2 46.7 36 -5.8 21.5
00:30 1009 29.8 838 24.75 8.1 46.6 37 -5.7 21.8
00:35 1009 29.8 838 24.75 8 46.3 37 -5.7 21.8
00:40 1009 29.8 838 24.75 7.9 46.3 38 -5.7 21.8
00:45 1009 29.8 838 24.75 7.9 46.2 37 -6.1 21.1
00:50 1009 29.8 838 24.75 8 46.3 37 -5.9 21.4
00:55 1009 29.8 838 24.75 8.1 46.5 37 -5.7 21.8
01:00 1009 29.8 838 24.75 8.1 46.6 34 -6.6 20
01:05 1009 29.8 838 24.75 8.5 47.3 34 -6.4 20.5
01:10 1009 29.8 838 24.75 8.5 47.3 34 -6.5 20.3
01:15 1009 29.8 838 24.75 8.4 47.2 35 -6.1 21
01:20 1009 29.8 838 24.75 8.4 47.2 35 -6 21.2
01:25 1009 29.8 838 24.75 8.2 46.7 36 -5.9 21.3
01:30 1009 29.8 838 24.75 8.3 46.9 37 -5.7 21.7
01:35 1009 29.8 838 24.75 8.1 46.6 38 -5.4 22.3
01:40 1009 29.8 838 24.75 8.3 46.9 36 -6.1 21.1
01:45 1009 29.8 838 24.75 8.4 47.1 36 -5.8 21.5
01:50 1009 29.8 838 24.75 8.3 47 38 -5.3 22.4
01:55 1009 29.8 838 24.75 8.1 46.6 37 -5.8 21.5
02:00 1009 29.8 838 24.75 8.1 46.7 38 -5.5 22.1
02:05 1009 29.8 838 24.75 8.2 46.8 36 -6 21.1
02:10 1009 29.8 838 24.75 8.5 47.2 36 -5.9 21.3
02:15 1009 29.8 838 24.75 8.5 47.2 37 -5.4 22.3
02:20 1009 29.8 838 24.75 8.3 47 36 -5.7 21.8
02:25 1009 29.8 838 24.75 8.3 46.9 37 -5.4 22.2
02:30 1009 29.8 838 24.75 8.2 46.7 37 -5.5 22
02:35 1009 29.8 838 24.75 8.4 47.1 34 -6.4 20.4
02:40 1009 29.8 838 24.75 8.5 47.3 35 -5.9 21.4
02:45 1009 29.8 838 24.75 8.4 47.2 37 -5.4 22.3
02:50 1009 29.8 838 24.75 8.2 46.7 37 -5.5 22.1
02:55 1009 29.8 838 24.75 8 46.4 38 -5.4 22.3
03:00 1009 29.8 838 24.75 8 46.4 35 -6.5 20.2
03:05 1009 29.8 838 24.75 8.5 47.2 34 -6.6 20.2
03:10 1009 29.8 838 24.75 8.6 47.5 35 -6.1 21.1
03:15 1009 29.8 838 24.75 8.6 47.5 34 -6.2 20.8
03:20 1009 29.8 838 24.75 8.6 47.5 35 -6 21.1
03:25 1008 29.77 838 24.75 8.7 47.7 34 -6.3 20.6
03:30 1008 29.77 838 24.75 8.8 47.9 34 -6.1 21.1
03:35 1008 29.77 838 24.75 8.7 47.6 35 -6 21.2
03:40 1008 29.77 837 24.72 8.7 47.6 34 -6.5 20.4
03:45 1008 29.77 837 24.72 8.6 47.6 34 -6.3 20.7
03:50 1008 29.77 837 24.72 8.6 47.5 34 -6.4 20.5
03:55 1008 29.77 837 24.72 8.6 47.5 33 -6.7 20
04:00 1008 29.77 837 24.72 8.7 47.7 34 -6.4 20.6
04:05 1008 29.77 837 24.72 8.7 47.6 34 -6.3 20.6
04:10 1008 29.77 837 24.72 8.7 47.7 33 -6.5 20.2
04:15 1008 29.77 837 24.72 8.7 47.6 32 -7 19.4
04:20 1008 29.77 837 24.72 8.9 48.1 31 -7.3 18.8
04:25 1008 29.77 837 24.72 9 48.2 31 -7 19.3
04:30 1008 29.77 837 24.72 9 48.2 31 -7.3 18.9
04:35 1008 29.77 837 24.72 9.1 48.3 32 -6.9 19.6
04:40 1008 29.77 837 24.72 9 48.1 32 -6.8 19.8
04:45 1008 29.77 837 24.72 8.9 48 31 -7.4 18.8
04:50 1008 29.77 837 24.72 9 48.3 31 -7 19.4
04:55 1008 29.77 837 24.72 8.9 48 32 -6.8 19.8
05:00 1008 29.77 837 24.72 8.7 47.7 32 -6.9 19.6
05:05 1008 29.77 837 24.72 8.5 47.4 34 -6.5 20.3
05:10 1008 29.77 837 24.72 8.5 47.3 33 -6.8 19.7
05:15 1008 29.77 837 24.72 8.6 47.4 33 -6.9 19.6
05:20 1007 29.74 837 24.72 8.6 47.4 33 -6.8 19.8
05:25 1007 29.74 837 24.72 8.4 47.1 33 -6.9 19.5
05:30 1007 29.74 836 24.69 8.4 47.1 33 -6.8 19.8
05:35 1007 29.74 836 24.69 8.3 46.9 34 -6.6 20.1
05:40 1007 29.74 836 24.69 8.4 47.1 32 -7.2 19
05:45 1007 29.74 836 24.69 8.6 47.5 33 -6.8 19.8
05:50 1007 29.74 836 24.69 8.5 47.3 33 -6.9 19.6
05:55 1007 29.74 836 24.69 8.4 47.2 33 -6.9 19.6
06:00 1007 29.74 836 24.69 8.2 46.8 34 -6.8 19.7
06:05 1007 29.74 836 24.69 8.3 46.9 33 -7.2 19
06:10 1007 29.74 836 24.69 8.4 47 33 -6.8 19.7
06:15 1007 29.74 836 24.69 8.3 46.9 34 -6.6 20.1
06:20 1007 29.74 836 24.69 8.2 46.7 33 -7.1 19.3
06:25 1007 29.74 836 24.69 8.2 46.7 34 -6.9 19.7
06:30 1007 29.74 836 24.69 8.1 46.5 34 -6.8 19.7
06:35 1007 29.74 836 24.69 8.1 46.5 34 -6.9 19.5
06:40 1007 29.74 836 24.69 8.1 46.5 33 -7.3 18.9
06:45 1007 29.74 836 24.69 8.1 46.6 33 -7 19.4
06:50 1007 29.74 836 24.69 8.2 46.7 33 -7.2 19
06:55 1007 29.74 836 24.69 8.2 46.8 33 -7.1 19.2
07:00 1007 29.74 836 24.69 8.1 46.6 33 -7.1 19.3
07:05 1007 29.74 836 24.69 8 46.5 34 -6.8 19.7
07:10 1007 29.74 836 24.69 7.7 45.8 35 -6.9 19.6
07:15 1007 29.74 836 24.69 7.5 45.6 37 -6.3 20.6
07:20 1007 29.74 836 24.69 7.5 45.5 37 -6.4 20.5
07:25 1007 29.74 836 24.69 7.5 45.5 36 -6.7 19.9
07:30 1007 29.74 836 24.69 7.4 45.2 38 -6.1 21.1
07:35 1007 29.74 836 24.69 7.4 45.3 37 -6.2 20.9
07:40 1007 29.74 836 24.69 7.1 44.8 39 -5.9 21.4
07:45 1007 29.74 836 24.69 7 44.7 39 -5.9 21.3
07:50 1007 29.74 836 24.69 6.9 44.5 39 -6.1 21
07:55 1007 29.74 836 24.69 7 44.6 40 -5.6 22
08:00 1007 29.74 836 24.69 6.8 44.2 40 -6 21.2
08:05 1007 29.74 836 24.69 6.8 44.3 41 -5.7 21.8
08:10 1007 29.74 836 24.69 6.8 44.3 40 -6 21.2
08:15 1007 29.74 836 24.69 7 44.6 39 -6.1 21
08:20 1007 29.74 836 24.69 7 44.6 39 -6.1 21.1
08:25 1007 29.74 836 24.69 7 44.5 40 -5.7 21.8
08:30 1007 29.74 836 24.69 6.8 44.2 45 -4.4 24
08:35 1007 29.74 836 24.69 6.4 43.6 42 -5.7 21.8
08:40 1007 29.74 836 24.69 6.6 43.8 44 -4.8 23.3
08:45 1007 29.74 836 24.69 6.3 43.3 46 -4.3 24.2
08:50 1007 29.74 836 24.69 5.9 42.6 50 -3.9 25
08:55 1007 29.74 836 24.69 5.3 41.5 53 -3.6 25.6
09:00 1007 29.74 836 24.69 5.1 41.1 54 -3.5 25.6
09:05 1007 29.74 836 24.69 5 40.9 51 -4.2 24.4
09:10 1007 29.74 836 24.69 5.1 41.2 51 -4.3 24.2
09:15 1007 29.74 836 24.69 5.2 41.3 51 -4.2 24.4
09:20 1007 29.74 836 24.69 5 41 52 -4 24.7
09:25 1007 29.74 836 24.69 4.9 40.8 52 -4.1 24.6
09:30 1007 29.74 836 24.69 4.9 40.8 52 -4.1 24.7
09:35 1007 29.74 836 24.69 4.9 40.9 51 -4.3 24.2
09:40 1007 29.74 836 24.69 4.9 40.9 51 -4.3 24.3
09:45 1007 29.74 836 24.69 4.8 40.7 51 -4.4 24.1
09:50 1007 29.74 836 24.69 4.8 40.6 50 -4.7 23.5
09:55 1007 29.74 836 24.69 5.1 41.1 49 -4.7 23.5
10:00 1007 29.74 836 24.69 5.4 41.8 49 -4.5 23.8
10:05 1007 29.74 836 24.69 5.8 42.4 47 -4.7 23.6
10:10 1007 29.74 836 24.69 5.9 42.7 47 -4.4 24.1
10:15 1007 29.74 836 24.69 5.9 42.7 47 -4.5 23.8
10:20 1007 29.74 836 24.69 6 42.8 48 -4.1 24.6
10:25 1007 29.74 836 24.69 6.1 43 47 -4.2 24.4
10:30 1007 29.74 836 24.69 6.2 43.2 49 -3.8 25.1
10:35 1007 29.74 836 24.69 5.5 41.9 51 -3.7 25.3
10:40 1007 29.74 836 24.69 5.2 41.3 52 -3.8 25.1
10:45 1007 29.74 836 24.69 5.4 41.8 51 -4 24.9
10:50 1007 29.74 836 24.69 5.7 42.3 49 -4.2 24.5
10:55 1007 29.74 836 24.69 6 42.7 49 -4 24.7
11:00 1006 29.71 836 24.69 6 42.8 47 -4.3 24.3
11:05 1006 29.71 836 24.69 6.1 42.9 48 -4.2 24.5
11:10 1006 29.71 835 24.66 6.1 42.9 48 -4.2 24.5
11:15 1006 29.71 835 24.66 6.3 43.3 45 -4.8 23.3
11:20 1006 29.71 836 24.69 6.7 44 44 -4.8 23.4
11:25 1006 29.71 835 24.66 6.7 44 43 -5 23
11:30 1006 29.71 835 24.66 6.8 44.2 43 -5 23.1
11:35 1006 29.71 835 24.66 7.1 44.8 42 -4.9 23.2
11:40 1006 29.71 835 24.66 7.1 44.8 41 -5.2 22.6
11:45 1006 29.71 835 24.66 7.2 44.9 43 -4.7 23.6
11:50 1006 29.71 835 24.66 7.3 45.1 42 -4.7 23.5
11:55 1006 29.71 835 24.66 7.1 44.8 44 -4.2 24.5
12:00 1005 29.68 835 24.66 6.4 43.5 47 -4.1 24.7
12:05 1005 29.68 834 24.63 5.9 42.6 48 -4.2 24.5
12:10 1005 29.68 834 24.63 5.8 42.4 49 -4 24.7
12:15 1005 29.68 834 24.63 5.9 42.6 48 -4.1 24.5
12:20 1005 29.68 834 24.63 5.7 42.2 50 -3.9 24.9
12:25 1004 29.65 834 24.63 5.6 42 49 -4.2 24.5
12:30 1004 29.65 834 24.63 5.9 42.5 50 -3.9 25
12:35 1004 29.65 833 24.6 5.6 42.2 50 -4 24.9
12:40 1004 29.65 833 24.6 5.5 41.9 50 -4.1 24.6
12:45 1004 29.65 833 24.6 5.6 42 50 -4.1 24.6
12:50 1004 29.65 833 24.6 5.7 42.3 49 -4.1 24.7
12:55 1004 29.65 833 24.6 5.8 42.5 49 -4 24.8
13:00 1004 29.65 833 24.6 5.8 42.5 49 -3.9 24.9
13:05 1004 29.65 833 24.6 6.2 43.1 50 -3.5 25.7
13:10 1004 29.65 833 24.6 5.9 42.6 52 -3.2 26.2
13:15 1004 29.65 833 24.6 6 42.8 50 -3.6 25.6
13:20 1004 29.65 833 24.6 6 42.9 47 -4.3 24.3
13:25 1004 29.65 833 24.6 6 42.8 47 -4.4 24.1
13:30 1003 29.62 833 24.6 6 42.7 49 -4 24.8
13:35 1003 29.62 833 24.6 6.1 42.9 47 -4.3 24.2
13:40 1003 29.62 833 24.6 6.1 42.9 49 -3.9 25.1
13:45 1003 29.62 833 24.6 6.1 42.9 46 -4.7 23.6
13:50 1003 29.62 832 24.57 5.6 42.1 48 -4.6 23.8
13:55 1003 29.62 833 24.6 5.5 41.9 49 -4.5 23.9
14:00 1003 29.62 833 24.6 5.5 42 50 -4.1 24.6
14:05 1003 29.62 833 24.6 5.6 42.1 49 -4.1 24.6
14:10 1003 29.62 833 24.6 5.4 41.7 50 -4.1 24.6
14:15 1003 29.62 832 24.57 5.5 42 50 -4.2 24.5
14:20 1003 29.62 832 24.57 5.5 41.9 49 -4.3 24.2
14:25 1003 29.62 832 24.57 5.5 41.9 48 -4.6 23.8
14:30 1003 29.62 832 24.57 5.4 41.6 50 -4.3 24.3
14:35 1003 29.62 832 24.57 5.5 41.9 50 -4.1 24.6
14:40 1003 29.62 832 24.57 5.7 42.3 49 -4 24.7
14:45 1003 29.62 832 24.57 5.5 41.8 51 -3.9 25.1
14:50 1003 29.62 832 24.57 5.5 41.8 51 -3.9 24.9
14:55 1003 29.62 832 24.57 5.7 42.2 50 -3.9 25
15:00 1003 29.62 832 24.57 5.6 42.1 49 -4.3 24.2
15:05 1003 29.62 832 24.57 5.9 42.6 48 -4.2 24.5
15:10 1003 29.62 832 24.57 6.2 43.2 46 -4.6 23.7
15:15 1003 29.62 832 24.57 6.6 43.8 45 -4.4 24.1
15:20 1003 29.62 832 24.57 6.6 44 46 -4.2 24.5
15:25 1003 29.62 832 24.57 6.6 44 47 -4 24.8
15:30 1003 29.62 832 24.57 6.4 43.6 48 -3.8 25.1
15:35 1003 29.62 832 24.57 6.3 43.3 48 -3.9 25
15:40 1003 29.62 832 24.57 6.4 43.6 46 -4.3 24.3
15:45 1003 29.62 832 24.57 6.7 44 46 -4.2 24.4
15:50 1003 29.62 832 24.57 6.8 44.2 46 -4.2 24.5
15:55 1003 29.62 832 24.57 6.8 44.3 46 -4.1 24.6
16:00 1003 29.62 832 24.57 6.9 44.3 45 -4.1 24.6
16:05 1003 29.62 832 24.57 6.9 44.3 46 -4 24.8
16:10 1003 29.62 832 24.57 6.7 44.1 47 -3.8 25.1
16:15 1003 29.62 833 24.6 6.5 43.7 48 -3.6 25.5
16:20 1003 29.62 833 24.6 6.4 43.5 48 -3.7 25.4
16:25 1004 29.65 833 24.6 6.2 43.1 50 -3.5 25.7
16:30 1004 29.65 833 24.6 6 42.8 51 -3.3 26.1
16:35 1004 29.65 833 24.6 5.8 42.4 52 -3.4 26
16:40 1004 29.65 833 24.6 5.7 42.3 53 -3.1 26.5
16:45 1004 29.65 833 24.6 5.5 41.9 53 -3.3 26.1
16:50 1004 29.65 833 24.6 5.5 41.9 54 -3.1 26.4
16:55 1004 29.65 833 24.6 5.5 41.8 54 -3.1 26.4
17:00 1004 29.65 833 24.6 5.4 41.7 54 -3.2 26.3
17:05 1004 29.65 833 24.6 5.5 41.8 54 -3 26.6
17:10 1004 29.65 834 24.63 5.3 41.6 56 -2.7 27.1
17:15 1004 29.65 834 24.63 5.1 41.2 57 -2.7 27.1
17:20 1004 29.65 834 24.63 5.2 41.3 57 -2.5 27.4
17:25 1004 29.65 834 24.63 5.1 41.2 58 -2.3 27.8
17:30 1004 29.65 834 24.63 5.1 41.1 59 -2.2 28.1
17:35 1004 29.65 834 24.63 4.9 40.9 61 -2 28.3
17:40 1004 29.65 833 24.6 4.7 40.5 61 -2.2 28
17:45 1004 29.65 833 24.6 4.7 40.5 61 -2.2 28.1
17:50 1004 29.65 833 24.6 4.7 40.5 61 -2.1 28.2
17:55 1004 29.65 833 24.6 4.7 40.4 61 -2.2 28
18:00 1004 29.65 833 24.6 4.7 40.5 61 -2.1 28.3
18:05 1004 29.65 833 24.6 4.6 40.2 62 -2.2 28.1
18:10 1004 29.65 833 24.6 4.5 40.1 62 -2.1 28.2
18:15 1004 29.65 833 24.6 4.4 40 62 -2.3 27.9
18:20 1004 29.65 833 24.6 4.4 39.9 61 -2.4 27.7
18:25 1004 29.65 833 24.6 4.3 39.8 62 -2.4 27.7
18:30 1004 29.65 833 24.6 4.3 39.7 60 -2.8 27
18:35 1004 29.65 833 24.6 4.4 39.8 60 -2.8 27
18:40 1004 29.65 833 24.6 4.4 39.9 58 -3 26.5
18:45 1004 29.65 833 24.6 4.5 40.1 58 -3.1 26.5
18:50 1004 29.65 833 24.6 4.5 40.2 59 -2.9 26.9
18:55 1004 29.65 833 24.6 4.4 39.9 59 -2.9 26.9
19:00 1004 29.65 833 24.6 4.4 39.9 60 -2.8 27
19:05 1004 29.65 833 24.6 4.3 39.7 60 -2.9 26.8
19:10 1004 29.65 833 24.6 4.3 39.7 59 -3 26.5
19:15 1004 29.65 833 24.6 4.2 39.6 58 -3.2 26.2
19:20 1004 29.65 833 24.6 4.4 39.9 58 -3.2 26.2
19:25 1004 29.65 833 24.6 4.4 39.8 58 -3.2 26.2
19:30 1004 29.65 833 24.6 4.3 39.7 58 -3.3 26
19:35 1004 29.65 833 24.6 4.4 40 57 -3.3 26.1
19:40 1004 29.65 833 24.6 4.5 40.1 56 -3.5 25.8
19:45 1004 29.65 833 24.6 4.5 40.2 55 -3.8 25.2
19:50 1004 29.65 833 24.6 4.7 40.5 54 -3.9 25.1
19:55 1003 29.62 833 24.6 4.9 40.8 54 -3.7 25.4
20:00 1004 29.65 833 24.6 4.9 40.8 54 -3.7 25.4
20:05 1003 29.62 833 24.6 4.8 40.7 55 -3.6 25.6
20:10 1003 29.62 833 24.6 4.9 40.7 54 -3.8 25.2
20:15 1003 29.62 832 24.57 4.9 40.7 54 -3.6 25.5
20:20 1003 29.62 832 24.57 4.8 40.6 54 -3.7 25.3
20:25 1003 29.62 832 24.57 4.8 40.6 53 -4.1 24.6
20:30 1003 29.62 832 24.57 5 40.9 52 -4 24.8
20:35 1003 29.62 832 24.57 5.1 41.1 52 -3.9 24.9
20:40 1003 29.62 832 24.57 5.2 41.3 52 -4 24.9
20:45 1003 29.62 832 24.57 5 41 54 -3.5 25.8
20:50 1003 29.62 832 24.57 4.5 40.2 55 -3.6 25.5
20:55 1003 29.62 832 24.57 4.1 39.3 60 -3 26.6
21:00 1003 29.62 832 24.57 3.7 38.6 60 -3.3 26.1
21:05 1003 29.62 832 24.57 3.8 38.8 59 -3.6 25.6
21:10 1003 29.62 832 24.57 4.1 39.3 58 -3.4 25.8
21:15 1003 29.62 832 24.57 4.1 39.3 56 -3.8 25.1
21:20 1003 29.62 832 24.57 4.3 39.8 57 -3.4 25.8
21:25 1003 29.62 832 24.57 4.2 39.5 57 -3.6 25.6
21:30 1003 29.62 832 24.57 4.1 39.3 57 -3.6 25.5
21:35 1003 29.62 832 24.57 4.1 39.5 58 -3.4 25.8
21:40 1003 29.62 832 24.57 4.4 39.9 54 -4.2 24.5
21:45 1002 29.59 832 24.57 5 41 50 -4.4 24
21:50 1002 29.59 832 24.57 5.2 41.4 48 -4.8 23.3
21:55 1002 29.59 831 24.54 5.5 41.9 46 -5.2 22.6
22:00 1002 29.59 831 24.54 5.6 42.2 47 -4.7 23.6
22:05 1002 29.59 831 24.54 5.5 42 48 -4.6 23.7
22:10 1002 29.59 831 24.54 5.4 41.7 48 -4.6 23.7
22:15 1002 29.59 831 24.54 5.3 41.6 48 -4.7 23.5
22:20 1002 29.59 831 24.54 5.3 41.5 49 -4.6 23.8
22:25 1002 29.59 831 24.54 5.3 41.5 48 -4.7 23.5
22:30 1002 29.59 831 24.54 5.2 41.3 50 -4.5 23.9
22:35 1002 29.59 831 24.54 5.2 41.3 48 -5.1 22.9
22:40 1002 29.59 831 24.54 5.4 41.7 47 -5.1 22.9
22:45 1002 29.59 831 24.54 5.4 41.7 49 -4.4 24.1
22:50 1002 29.59 831 24.54 5.1 41.2 51 -4.1 24.7
22:55 1002 29.59 831 24.54 4.8 40.7 55 -3.5 25.6
23:00 1002 29.59 831 24.54 4.4 40 56 -3.6 25.5
23:05 1002 29.59 831 24.54 4.2 39.5 55 -4.2 24.5
23:10 1002 29.59 831 24.54 4.5 40.2 52 -4.5 23.9
23:15 1002 29.59 831 24.54 4.8 40.6 54 -3.8 25.1
23:20 1002 29.59 831 24.54 4.4 40 56 -3.5 25.6
23:25 1002 29.59 831 24.54 4.3 39.7 57 -3.5 25.7
23:30 1002 29.59 831 24.54 4.2 39.6 56 -3.7 25.3
23:35 1002 29.59 831 24.54 4.6 40.2 52 -4.4 24.1
23:40 1002 29.59 831 24.54 4.7 40.5 53 -3.9 24.9
23:45 1002 29.59 831 24.54 4.8 40.6 53 -3.9 25
23:50 1002 29.59 831 24.54 4.5 40.2 56 -3.4 25.9
23:55 1002 29.59 831 24.54 4.3 39.8 58 -3.3 26.1
24:00 1002 29.59 831 24.54 4.2 39.6 59 -3.1 26.4